sensor_id;sensor_type;location;lat;lon;timestamp;P1;durP1;ratioP1;P2;durP2;ratioP2
20322;SDS011;10319;52.206;20.996;2024-03-22T00:00:04;30.33;;;13.67;;
20322;SDS011;10319;52.206;20.996;2024-03-22T00:02:30;33.50;;;15.30;;
20322;SDS011;10319;52.206;20.996;2024-03-22T00:04:55;30.83;;;13.70;;
20322;SDS011;10319;52.206;20.996;2024-03-22T00:07:20;31.17;;;14.33;;
20322;SDS011;10319;52.206;20.996;2024-03-22T00:09:45;30.67;;;13.90;;
20322;SDS011;10319;52.206;20.996;2024-03-22T00:12:11;31.87;;;14.97;;
20322;SDS011;10319;52.206;20.996;2024-03-22T00:14:36;32.47;;;14.73;;
20322;SDS011;10319;52.206;20.996;2024-03-22T00:17:01;32.03;;;14.17;;
20322;SDS011;10319;52.206;20.996;2024-03-22T00:19:26;31.10;;;14.30;;
20322;SDS011;10319;52.206;20.996;2024-03-22T00:21:51;32.00;;;15.70;;
20322;SDS011;10319;52.206;20.996;2024-03-22T00:24:17;34.67;;;15.40;;
20322;SDS011;10319;52.206;20.996;2024-03-22T00:26:42;29.20;;;13.50;;
20322;SDS011;10319;52.206;20.996;2024-03-22T00:29:07;29.17;;;13.30;;
20322;SDS011;10319;52.206;20.996;2024-03-22T00:31:33;26.20;;;11.67;;
20322;SDS011;10319;52.206;20.996;2024-03-22T00:33:58;32.30;;;15.20;;
20322;SDS011;10319;52.206;20.996;2024-03-22T00:36:23;34.03;;;15.30;;
20322;SDS011;10319;52.206;20.996;2024-03-22T00:38:48;27.57;;;12.77;;
20322;SDS011;10319;52.206;20.996;2024-03-22T00:41:14;28.70;;;12.90;;
20322;SDS011;10319;52.206;20.996;2024-03-22T00:43:39;33.53;;;15.17;;
20322;SDS011;10319;52.206;20.996;2024-03-22T00:46:04;33.40;;;15.37;;
20322;SDS011;10319;52.206;20.996;2024-03-22T00:48:29;31.83;;;15.00;;
20322;SDS011;10319;52.206;20.996;2024-03-22T00:50:55;33.80;;;15.37;;
20322;SDS011;10319;52.206;20.996;2024-03-22T00:53:20;33.47;;;15.20;;
20322;SDS011;10319;52.206;20.996;2024-03-22T00:55:45;31.20;;;14.57;;
20322;SDS011;10319;52.206;20.996;2024-03-22T00:58:15;35.37;;;16.93;;
20322;SDS011;10319;52.206;20.996;2024-03-22T01:00:41;37.50;;;17.40;;
20322;SDS011;10319;52.206;20.996;2024-03-22T01:03:06;36.27;;;18.00;;
20322;SDS011;10319;52.206;20.996;2024-03-22T01:05:31;35.23;;;17.57;;
20322;SDS011;10319;52.206;20.996;2024-03-22T01:07:56;34.93;;;15.37;;
20322;SDS011;10319;52.206;20.996;2024-03-22T01:10:21;37.20;;;18.17;;
20322;SDS011;10319;52.206;20.996;2024-03-22T01:12:47;36.83;;;17.83;;
20322;SDS011;10319;52.206;20.996;2024-03-22T01:15:12;42.43;;;19.57;;
20322;SDS011;10319;52.206;20.996;2024-03-22T01:17:37;37.50;;;17.83;;
20322;SDS011;10319;52.206;20.996;2024-03-22T01:20:02;39.63;;;19.40;;
20322;SDS011;10319;52.206;20.996;2024-03-22T01:22:28;41.00;;;18.97;;
20322;SDS011;10319;52.206;20.996;2024-03-22T01:24:53;36.00;;;17.43;;
20322;SDS011;10319;52.206;20.996;2024-03-22T01:27:18;34.03;;;16.70;;
20322;SDS011;10319;52.206;20.996;2024-03-22T01:29:44;38.90;;;19.30;;
20322;SDS011;10319;52.206;20.996;2024-03-22T01:32:09;40.63;;;20.53;;
20322;SDS011;10319;52.206;20.996;2024-03-22T01:34:34;38.47;;;18.43;;
20322;SDS011;10319;52.206;20.996;2024-03-22T01:37:00;34.20;;;17.10;;
20322;SDS011;10319;52.206;20.996;2024-03-22T01:39:25;35.07;;;16.67;;
20322;SDS011;10319;52.206;20.996;2024-03-22T01:41:50;33.83;;;16.73;;
20322;SDS011;10319;52.206;20.996;2024-03-22T01:44:16;38.90;;;17.70;;
20322;SDS011;10319;52.206;20.996;2024-03-22T01:46:41;32.43;;;15.00;;
20322;SDS011;10319;52.206;20.996;2024-03-22T01:49:08;29.67;;;14.27;;
20322;SDS011;10319;52.206;20.996;2024-03-22T01:51:34;32.10;;;14.77;;
20322;SDS011;10319;52.206;20.996;2024-03-22T01:54:00;26.23;;;12.60;;
20322;SDS011;10319;52.206;20.996;2024-03-22T01:56:26;35.47;;;16.57;;
20322;SDS011;10319;52.206;20.996;2024-03-22T01:58:51;42.70;;;21.17;;
20322;SDS011;10319;52.206;20.996;2024-03-22T02:01:16;38.57;;;18.57;;
20322;SDS011;10319;52.206;20.996;2024-03-22T02:03:42;34.77;;;16.23;;
20322;SDS011;10319;52.206;20.996;2024-03-22T02:06:07;27.83;;;12.83;;
20322;SDS011;10319;52.206;20.996;2024-03-22T02:08:34;28.73;;;13.17;;
20322;SDS011;10319;52.206;20.996;2024-03-22T02:11:00;28.93;;;13.40;;
20322;SDS011;10319;52.206;20.996;2024-03-22T02:13:25;29.20;;;12.77;;
20322;SDS011;10319;52.206;20.996;2024-03-22T02:15:50;22.20;;;9.77;;
20322;SDS011;10319;52.206;20.996;2024-03-22T02:18:15;27.13;;;11.13;;
20322;SDS011;10319;52.206;20.996;2024-03-22T02:20:41;24.93;;;10.93;;
20322;SDS011;10319;52.206;20.996;2024-03-22T02:23:06;21.57;;;9.10;;
20322;SDS011;10319;52.206;20.996;2024-03-22T02:25:31;22.67;;;9.50;;
20322;SDS011;10319;52.206;20.996;2024-03-22T02:27:56;25.43;;;10.93;;
20322;SDS011;10319;52.206;20.996;2024-03-22T02:30:21;23.80;;;10.07;;
20322;SDS011;10319;52.206;20.996;2024-03-22T02:32:47;32.73;;;14.30;;
20322;SDS011;10319;52.206;20.996;2024-03-22T02:35:12;27.67;;;11.97;;
20322;SDS011;10319;52.206;20.996;2024-03-22T02:37:37;25.63;;;10.83;;
20322;SDS011;10319;52.206;20.996;2024-03-22T02:40:02;23.03;;;9.80;;
20322;SDS011;10319;52.206;20.996;2024-03-22T02:42:28;19.83;;;8.47;;
20322;SDS011;10319;52.206;20.996;2024-03-22T02:44:53;24.03;;;9.57;;
20322;SDS011;10319;52.206;20.996;2024-03-22T02:47:18;21.40;;;9.30;;
20322;SDS011;10319;52.206;20.996;2024-03-22T02:49:43;20.30;;;8.13;;
20322;SDS011;10319;52.206;20.996;2024-03-22T02:52:09;19.40;;;7.53;;
20322;SDS011;10319;52.206;20.996;2024-03-22T02:54:34;30.93;;;13.27;;
20322;SDS011;10319;52.206;20.996;2024-03-22T02:57:00;26.90;;;11.60;;
20322;SDS011;10319;52.206;20.996;2024-03-22T02:59:26;21.43;;;9.20;;
20322;SDS011;10319;52.206;20.996;2024-03-22T03:01:52;20.90;;;8.97;;
20322;SDS011;10319;52.206;20.996;2024-03-22T03:04:17;18.27;;;7.40;;
20322;SDS011;10319;52.206;20.996;2024-03-22T03:06:42;16.07;;;6.17;;
20322;SDS011;10319;52.206;20.996;2024-03-22T03:09:08;16.80;;;5.87;;
20322;SDS011;10319;52.206;20.996;2024-03-22T03:11:35;15.67;;;5.90;;
20322;SDS011;10319;52.206;20.996;2024-03-22T03:14:01;17.80;;;6.50;;
20322;SDS011;10319;52.206;20.996;2024-03-22T03:16:26;18.43;;;7.23;;
20322;SDS011;10319;52.206;20.996;2024-03-22T03:18:51;17.70;;;7.00;;
20322;SDS011;10319;52.206;20.996;2024-03-22T03:21:16;17.37;;;6.63;;
20322;SDS011;10319;52.206;20.996;2024-03-22T03:23:41;15.90;;;5.90;;
20322;SDS011;10319;52.206;20.996;2024-03-22T03:26:07;15.30;;;5.40;;
20322;SDS011;10319;52.206;20.996;2024-03-22T03:28:32;16.10;;;6.00;;
20322;SDS011;10319;52.206;20.996;2024-03-22T03:30:57;19.40;;;7.90;;
20322;SDS011;10319;52.206;20.996;2024-03-22T03:33:22;18.07;;;7.20;;
20322;SDS011;10319;52.206;20.996;2024-03-22T03:35:48;19.40;;;7.20;;
20322;SDS011;10319;52.206;20.996;2024-03-22T03:38:13;22.93;;;9.30;;
20322;SDS011;10319;52.206;20.996;2024-03-22T03:40:38;24.47;;;10.00;;
20322;SDS011;10319;52.206;20.996;2024-03-22T03:43:03;22.83;;;10.03;;
20322;SDS011;10319;52.206;20.996;2024-03-22T03:45:29;22.57;;;9.50;;
20322;SDS011;10319;52.206;20.996;2024-03-22T03:47:54;23.77;;;9.67;;
20322;SDS011;10319;52.206;20.996;2024-03-22T03:50:19;30.80;;;12.80;;
20322;SDS011;10319;52.206;20.996;2024-03-22T03:52:44;25.10;;;11.27;;
20322;SDS011;10319;52.206;20.996;2024-03-22T03:55:09;22.67;;;9.50;;
20322;SDS011;10319;52.206;20.996;2024-03-22T03:57:35;20.73;;;8.37;;
20322;SDS011;10319;52.206;20.996;2024-03-22T04:00:00;27.57;;;11.00;;
20322;SDS011;10319;52.206;20.996;2024-03-22T04:02:25;22.57;;;9.10;;
20322;SDS011;10319;52.206;20.996;2024-03-22T04:04:53;21.10;;;8.67;;
20322;SDS011;10319;52.206;20.996;2024-03-22T04:07:22;25.33;;;10.80;;
20322;SDS011;10319;52.206;20.996;2024-03-22T04:09:47;28.33;;;11.57;;
20322;SDS011;10319;52.206;20.996;2024-03-22T04:12:12;29.47;;;11.83;;
20322;SDS011;10319;52.206;20.996;2024-03-22T04:14:38;32.00;;;13.83;;
20322;SDS011;10319;52.206;20.996;2024-03-22T04:17:03;24.63;;;9.77;;
20322;SDS011;10319;52.206;20.996;2024-03-22T04:19:28;22.23;;;9.40;;
20322;SDS011;10319;52.206;20.996;2024-03-22T04:21:54;21.83;;;8.87;;
20322;SDS011;10319;52.206;20.996;2024-03-22T04:24:19;20.70;;;8.50;;
20322;SDS011;10319;52.206;20.996;2024-03-22T04:26:44;21.13;;;8.00;;
20322;SDS011;10319;52.206;20.996;2024-03-22T04:29:09;18.10;;;6.93;;
20322;SDS011;10319;52.206;20.996;2024-03-22T04:31:35;18.63;;;6.73;;
20322;SDS011;10319;52.206;20.996;2024-03-22T04:34:00;18.17;;;6.57;;
20322;SDS011;10319;52.206;20.996;2024-03-22T04:36:25;16.83;;;5.77;;
20322;SDS011;10319;52.206;20.996;2024-03-22T04:38:50;15.50;;;5.40;;
20322;SDS011;10319;52.206;20.996;2024-03-22T04:41:16;14.83;;;5.23;;
20322;SDS011;10319;52.206;20.996;2024-03-22T04:43:41;16.53;;;5.60;;
20322;SDS011;10319;52.206;20.996;2024-03-22T04:46:06;17.80;;;6.10;;
20322;SDS011;10319;52.206;20.996;2024-03-22T04:48:31;18.33;;;6.40;;
20322;SDS011;10319;52.206;20.996;2024-03-22T04:50:57;20.43;;;7.90;;
20322;SDS011;10319;52.206;20.996;2024-03-22T04:53:22;20.17;;;7.50;;
20322;SDS011;10319;52.206;20.996;2024-03-22T04:55:47;21.73;;;8.80;;
20322;SDS011;10319;52.206;20.996;2024-03-22T04:58:22;20.97;;;8.53;;
20322;SDS011;10319;52.206;20.996;2024-03-22T05:00:47;19.87;;;7.33;;
20322;SDS011;10319;52.206;20.996;2024-03-22T05:03:13;21.60;;;8.57;;
20322;SDS011;10319;52.206;20.996;2024-03-22T05:05:39;19.67;;;7.17;;
20322;SDS011;10319;52.206;20.996;2024-03-22T05:08:04;18.50;;;6.90;;
20322;SDS011;10319;52.206;20.996;2024-03-22T05:10:30;17.07;;;5.83;;
20322;SDS011;10319;52.206;20.996;2024-03-22T05:12:55;15.13;;;5.40;;
20322;SDS011;10319;52.206;20.996;2024-03-22T05:15:21;15.27;;;5.43;;
20322;SDS011;10319;52.206;20.996;2024-03-22T05:17:46;16.43;;;5.63;;
20322;SDS011;10319;52.206;20.996;2024-03-22T05:20:11;15.83;;;5.67;;
20322;SDS011;10319;52.206;20.996;2024-03-22T05:22:37;15.07;;;5.23;;
20322;SDS011;10319;52.206;20.996;2024-03-22T05:25:02;16.20;;;5.63;;
20322;SDS011;10319;52.206;20.996;2024-03-22T05:27:28;15.87;;;5.90;;
20322;SDS011;10319;52.206;20.996;2024-03-22T05:29:53;18.33;;;6.53;;
20322;SDS011;10319;52.206;20.996;2024-03-22T05:32:18;15.77;;;5.57;;
20322;SDS011;10319;52.206;20.996;2024-03-22T05:34:44;15.37;;;5.53;;
20322;SDS011;10319;52.206;20.996;2024-03-22T05:37:09;14.30;;;5.07;;
20322;SDS011;10319;52.206;20.996;2024-03-22T05:39:36;15.00;;;5.40;;
20322;SDS011;10319;52.206;20.996;2024-03-22T05:42:01;15.37;;;5.30;;
20322;SDS011;10319;52.206;20.996;2024-03-22T05:44:26;15.37;;;5.13;;
20322;SDS011;10319;52.206;20.996;2024-03-22T05:46:51;18.33;;;6.50;;
20322;SDS011;10319;52.206;20.996;2024-03-22T05:49:17;16.17;;;5.80;;
20322;SDS011;10319;52.206;20.996;2024-03-22T05:51:42;17.07;;;6.50;;
20322;SDS011;10319;52.206;20.996;2024-03-22T05:54:07;15.97;;;5.90;;
20322;SDS011;10319;52.206;20.996;2024-03-22T05:56:32;14.77;;;5.03;;
20322;SDS011;10319;52.206;20.996;2024-03-22T05:58:58;15.80;;;5.80;;
20322;SDS011;10319;52.206;20.996;2024-03-22T06:01:23;17.07;;;6.30;;
20322;SDS011;10319;52.206;20.996;2024-03-22T06:03:48;19.10;;;6.33;;
20322;SDS011;10319;52.206;20.996;2024-03-22T06:06:13;19.47;;;7.10;;
20322;SDS011;10319;52.206;20.996;2024-03-22T06:08:39;18.27;;;6.90;;
20322;SDS011;10319;52.206;20.996;2024-03-22T06:11:08;21.53;;;8.67;;
20322;SDS011;10319;52.206;20.996;2024-03-22T06:13:34;21.80;;;8.20;;
20322;SDS011;10319;52.206;20.996;2024-03-22T06:16:00;16.10;;;6.00;;
20322;SDS011;10319;52.206;20.996;2024-03-22T06:18:25;16.83;;;5.70;;
20322;SDS011;10319;52.206;20.996;2024-03-22T06:20:50;17.23;;;6.00;;
20322;SDS011;10319;52.206;20.996;2024-03-22T06:23:15;24.97;;;9.73;;
20322;SDS011;10319;52.206;20.996;2024-03-22T06:25:40;20.60;;;8.00;;
20322;SDS011;10319;52.206;20.996;2024-03-22T06:28:06;19.63;;;7.00;;
20322;SDS011;10319;52.206;20.996;2024-03-22T06:30:31;18.10;;;6.90;;
20322;SDS011;10319;52.206;20.996;2024-03-22T06:32:56;17.60;;;6.73;;
20322;SDS011;10319;52.206;20.996;2024-03-22T06:35:23;17.10;;;6.17;;
20322;SDS011;10319;52.206;20.996;2024-03-22T06:37:48;18.27;;;7.03;;
20322;SDS011;10319;52.206;20.996;2024-03-22T06:40:14;19.40;;;7.30;;
20322;SDS011;10319;52.206;20.996;2024-03-22T06:42:39;18.70;;;7.47;;
20322;SDS011;10319;52.206;20.996;2024-03-22T06:45:05;18.83;;;7.53;;
20322;SDS011;10319;52.206;20.996;2024-03-22T06:47:30;18.30;;;7.43;;
20322;SDS011;10319;52.206;20.996;2024-03-22T06:49:55;17.17;;;6.40;;
20322;SDS011;10319;52.206;20.996;2024-03-22T06:52:20;14.97;;;5.57;;
20322;SDS011;10319;52.206;20.996;2024-03-22T06:54:46;14.83;;;5.43;;
20322;SDS011;10319;52.206;20.996;2024-03-22T06:57:11;15.73;;;5.73;;
20322;SDS011;10319;52.206;20.996;2024-03-22T06:59:37;18.77;;;7.47;;
20322;SDS011;10319;52.206;20.996;2024-03-22T07:02:02;17.97;;;7.10;;
20322;SDS011;10319;52.206;20.996;2024-03-22T07:04:28;18.47;;;7.10;;
20322;SDS011;10319;52.206;20.996;2024-03-22T07:06:53;24.60;;;8.93;;
20322;SDS011;10319;52.206;20.996;2024-03-22T07:09:18;21.20;;;8.60;;
20322;SDS011;10319;52.206;20.996;2024-03-22T07:11:43;23.70;;;9.87;;
20322;SDS011;10319;52.206;20.996;2024-03-22T07:14:09;21.07;;;9.20;;
20322;SDS011;10319;52.206;20.996;2024-03-22T07:16:34;22.33;;;9.23;;
20322;SDS011;10319;52.206;20.996;2024-03-22T07:19:02;21.63;;;9.10;;
20322;SDS011;10319;52.206;20.996;2024-03-22T07:21:27;26.07;;;10.77;;
20322;SDS011;10319;52.206;20.996;2024-03-22T07:23:52;23.17;;;9.67;;
20322;SDS011;10319;52.206;20.996;2024-03-22T07:26:17;23.80;;;10.00;;
20322;SDS011;10319;52.206;20.996;2024-03-22T07:28:43;24.70;;;10.53;;
20322;SDS011;10319;52.206;20.996;2024-03-22T07:31:08;22.00;;;9.73;;
20322;SDS011;10319;52.206;20.996;2024-03-22T07:33:33;23.67;;;10.60;;
20322;SDS011;10319;52.206;20.996;2024-03-22T07:36:02;20.67;;;8.53;;
20322;SDS011;10319;52.206;20.996;2024-03-22T07:38:27;20.83;;;8.87;;
20322;SDS011;10319;52.206;20.996;2024-03-22T07:40:53;28.60;;;12.17;;
20322;SDS011;10319;52.206;20.996;2024-03-22T07:43:18;29.73;;;13.20;;
20322;SDS011;10319;52.206;20.996;2024-03-22T07:45:45;28.13;;;12.27;;
20322;SDS011;10319;52.206;20.996;2024-03-22T07:48:11;25.47;;;10.87;;
20322;SDS011;10319;52.206;20.996;2024-03-22T07:50:36;27.90;;;12.53;;
20322;SDS011;10319;52.206;20.996;2024-03-22T07:53:04;31.73;;;13.57;;
20322;SDS011;10319;52.206;20.996;2024-03-22T07:55:29;31.13;;;14.03;;
20322;SDS011;10319;52.206;20.996;2024-03-22T07:57:54;31.90;;;14.70;;
20322;SDS011;10319;52.206;20.996;2024-03-22T08:00:19;34.40;;;14.17;;
20322;SDS011;10319;52.206;20.996;2024-03-22T08:02:45;32.13;;;14.27;;
20322;SDS011;10319;52.206;20.996;2024-03-22T08:05:10;32.27;;;13.67;;
20322;SDS011;10319;52.206;20.996;2024-03-22T08:07:35;32.70;;;14.30;;
20322;SDS011;10319;52.206;20.996;2024-03-22T08:10:00;25.97;;;11.37;;
20322;SDS011;10319;52.206;20.996;2024-03-22T08:12:27;25.60;;;10.47;;
20322;SDS011;10319;52.206;20.996;2024-03-22T08:14:52;23.37;;;9.17;;
20322;SDS011;10319;52.206;20.996;2024-03-22T08:17:17;28.73;;;12.83;;
20322;SDS011;10319;52.206;20.996;2024-03-22T08:19:42;26.10;;;10.90;;
20322;SDS011;10319;52.206;20.996;2024-03-22T08:22:09;25.63;;;11.20;;
20322;SDS011;10319;52.206;20.996;2024-03-22T08:24:34;28.27;;;11.60;;
20322;SDS011;10319;52.206;20.996;2024-03-22T08:26:59;26.40;;;11.00;;
20322;SDS011;10319;52.206;20.996;2024-03-22T08:29:25;21.40;;;8.73;;
20322;SDS011;10319;52.206;20.996;2024-03-22T08:31:52;21.80;;;7.90;;
20322;SDS011;10319;52.206;20.996;2024-03-22T08:34:18;21.27;;;7.83;;
20322;SDS011;10319;52.206;20.996;2024-03-22T08:36:43;20.30;;;7.90;;
20322;SDS011;10319;52.206;20.996;2024-03-22T08:39:08;24.53;;;10.10;;
20322;SDS011;10319;52.206;20.996;2024-03-22T08:41:36;19.00;;;7.67;;
20322;SDS011;10319;52.206;20.996;2024-03-22T08:44:01;23.60;;;9.63;;
20322;SDS011;10319;52.206;20.996;2024-03-22T08:46:27;22.43;;;8.93;;
20322;SDS011;10319;52.206;20.996;2024-03-22T08:48:53;19.17;;;8.07;;
20322;SDS011;10319;52.206;20.996;2024-03-22T08:51:18;21.70;;;8.33;;
20322;SDS011;10319;52.206;20.996;2024-03-22T08:53:44;20.47;;;8.27;;
20322;SDS011;10319;52.206;20.996;2024-03-22T08:56:12;21.07;;;8.70;;
20322;SDS011;10319;52.206;20.996;2024-03-22T08:58:37;21.70;;;9.00;;
20322;SDS011;10319;52.206;20.996;2024-03-22T09:01:03;22.63;;;9.63;;
20322;SDS011;10319;52.206;20.996;2024-03-22T09:03:28;23.43;;;10.50;;
20322;SDS011;10319;52.206;20.996;2024-03-22T09:05:55;24.27;;;9.80;;
20322;SDS011;10319;52.206;20.996;2024-03-22T09:08:20;25.93;;;11.40;;
20322;SDS011;10319;52.206;20.996;2024-03-22T09:10:46;24.67;;;10.93;;
20322;SDS011;10319;52.206;20.996;2024-03-22T09:13:12;28.27;;;12.37;;
20322;SDS011;10319;52.206;20.996;2024-03-22T09:15:37;25.47;;;11.30;;
20322;SDS011;10319;52.206;20.996;2024-03-22T09:18:03;24.03;;;10.13;;
20322;SDS011;10319;52.206;20.996;2024-03-22T09:20:28;18.60;;;7.67;;
20322;SDS011;10319;52.206;20.996;2024-03-22T09:22:53;23.90;;;10.13;;
20322;SDS011;10319;52.206;20.996;2024-03-22T09:25:19;32.10;;;14.20;;
20322;SDS011;10319;52.206;20.996;2024-03-22T09:27:44;30.73;;;13.40;;
20322;SDS011;10319;52.206;20.996;2024-03-22T09:30:09;27.33;;;12.10;;
20322;SDS011;10319;52.206;20.996;2024-03-22T09:32:34;26.10;;;12.20;;
20322;SDS011;10319;52.206;20.996;2024-03-22T09:35:00;21.97;;;9.33;;
20322;SDS011;10319;52.206;20.996;2024-03-22T09:37:26;24.47;;;9.83;;
20322;SDS011;10319;52.206;20.996;2024-03-22T09:39:51;30.00;;;13.13;;
20322;SDS011;10319;52.206;20.996;2024-03-22T09:42:19;27.30;;;12.40;;
20322;SDS011;10319;52.206;20.996;2024-03-22T09:44:52;27.13;;;11.77;;
20322;SDS011;10319;52.206;20.996;2024-03-22T09:47:18;22.67;;;10.03;;
20322;SDS011;10319;52.206;20.996;2024-03-22T09:49:46;24.57;;;10.13;;
20322;SDS011;10319;52.206;20.996;2024-03-22T09:52:14;22.33;;;9.70;;
20322;SDS011;10319;52.206;20.996;2024-03-22T09:54:41;23.73;;;10.57;;
20322;SDS011;10319;52.206;20.996;2024-03-22T09:57:06;26.87;;;12.20;;
20322;SDS011;10319;52.206;20.996;2024-03-22T09:59:34;30.07;;;13.63;;
20322;SDS011;10319;52.206;20.996;2024-03-22T10:02:00;28.57;;;13.80;;
20322;SDS011;10319;52.206;20.996;2024-03-22T10:04:26;28.33;;;12.87;;
20322;SDS011;10319;52.206;20.996;2024-03-22T10:06:51;24.70;;;10.60;;
20322;SDS011;10319;52.206;20.996;2024-03-22T10:09:16;28.53;;;13.03;;
20322;SDS011;10319;52.206;20.996;2024-03-22T10:11:43;29.57;;;12.97;;
20322;SDS011;10319;52.206;20.996;2024-03-22T10:14:09;28.70;;;12.97;;
20322;SDS011;10319;52.206;20.996;2024-03-22T10:16:35;27.97;;;12.60;;
20322;SDS011;10319;52.206;20.996;2024-03-22T10:19:00;28.47;;;12.97;;
20322;SDS011;10319;52.206;20.996;2024-03-22T10:21:25;25.30;;;11.20;;
20322;SDS011;10319;52.206;20.996;2024-03-22T10:23:53;24.47;;;10.67;;
20322;SDS011;10319;52.206;20.996;2024-03-22T10:26:18;24.73;;;10.50;;
20322;SDS011;10319;52.206;20.996;2024-03-22T10:28:44;24.60;;;10.40;;
20322;SDS011;10319;52.206;20.996;2024-03-22T10:31:10;24.90;;;11.23;;
20322;SDS011;10319;52.206;20.996;2024-03-22T10:33:35;21.87;;;9.57;;
20322;SDS011;10319;52.206;20.996;2024-03-22T10:36:00;20.87;;;8.93;;
20322;SDS011;10319;52.206;20.996;2024-03-22T10:38:27;21.70;;;9.07;;
20322;SDS011;10319;52.206;20.996;2024-03-22T10:40:53;24.80;;;10.60;;
20322;SDS011;10319;52.206;20.996;2024-03-22T10:43:19;27.13;;;11.73;;
20322;SDS011;10319;52.206;20.996;2024-03-22T10:45:49;25.17;;;10.33;;
20322;SDS011;10319;52.206;20.996;2024-03-22T10:48:15;23.30;;;10.50;;
20322;SDS011;10319;52.206;20.996;2024-03-22T10:50:45;24.43;;;10.07;;
20322;SDS011;10319;52.206;20.996;2024-03-22T10:53:12;27.57;;;11.33;;
20322;SDS011;10319;52.206;20.996;2024-03-22T10:55:40;23.17;;;10.33;;
20322;SDS011;10319;52.206;20.996;2024-03-22T10:58:06;24.43;;;10.70;;
20322;SDS011;10319;52.206;20.996;2024-03-22T11:00:34;25.67;;;11.27;;
20322;SDS011;10319;52.206;20.996;2024-03-22T11:03:02;29.60;;;11.63;;
20322;SDS011;10319;52.206;20.996;2024-03-22T11:05:27;27.50;;;12.70;;
20322;SDS011;10319;52.206;20.996;2024-03-22T11:08:05;25.47;;;11.67;;
20322;SDS011;10319;52.206;20.996;2024-03-22T11:10:30;25.93;;;11.63;;
20322;SDS011;10319;52.206;20.996;2024-03-22T11:13:00;24.80;;;10.43;;
20322;SDS011;10319;52.206;20.996;2024-03-22T11:15:25;23.80;;;10.77;;
20322;SDS011;10319;52.206;20.996;2024-03-22T11:17:51;22.50;;;9.90;;
20322;SDS011;10319;52.206;20.996;2024-03-22T11:20:16;23.20;;;10.03;;
20322;SDS011;10319;52.206;20.996;2024-03-22T11:22:41;23.87;;;10.37;;
20322;SDS011;10319;52.206;20.996;2024-03-22T11:25:07;18.97;;;8.27;;
20322;SDS011;10319;52.206;20.996;2024-03-22T11:27:32;21.23;;;9.40;;
20322;SDS011;10319;52.206;20.996;2024-03-22T11:29:57;21.87;;;9.67;;
20322;SDS011;10319;52.206;20.996;2024-03-22T11:32:23;20.67;;;8.87;;
20322;SDS011;10319;52.206;20.996;2024-03-22T11:34:49;22.37;;;9.67;;
20322;SDS011;10319;52.206;20.996;2024-03-22T11:37:14;21.90;;;9.90;;
20322;SDS011;10319;52.206;20.996;2024-03-22T11:39:47;24.40;;;10.10;;
20322;SDS011;10319;52.206;20.996;2024-03-22T11:42:39;21.00;;;9.50;;
20322;SDS011;10319;52.206;20.996;2024-03-22T11:45:16;22.47;;;9.97;;
20322;SDS011;10319;52.206;20.996;2024-03-22T11:47:44;21.20;;;9.87;;
20322;SDS011;10319;52.206;20.996;2024-03-22T11:50:10;25.03;;;10.30;;
20322;SDS011;10319;52.206;20.996;2024-03-22T11:55:39;26.87;;;9.67;;
20322;SDS011;10319;52.206;20.996;2024-03-22T12:01:15;21.30;;;8.97;;
20322;SDS011;10319;52.206;20.996;2024-03-22T12:03:46;20.73;;;8.73;;
20322;SDS011;10319;52.206;20.996;2024-03-22T12:06:21;19.70;;;8.00;;
20322;SDS011;10319;52.206;20.996;2024-03-22T12:08:48;17.07;;;7.03;;
20322;SDS011;10319;52.206;20.996;2024-03-22T12:24:40;19.40;;;7.47;;
20322;SDS011;10319;52.206;20.996;2024-03-22T12:35:49;18.70;;;7.00;;
20322;SDS011;10319;52.206;20.996;2024-03-22T12:38:22;18.70;;;7.03;;
20322;SDS011;10319;52.206;20.996;2024-03-22T12:40:47;20.23;;;7.70;;
20322;SDS011;10319;52.206;20.996;2024-03-22T12:43:19;20.47;;;8.17;;
20322;SDS011;10319;52.206;20.996;2024-03-22T12:45:47;17.77;;;6.57;;
20322;SDS011;10319;52.206;20.996;2024-03-22T12:48:12;17.13;;;6.70;;
20322;SDS011;10319;52.206;20.996;2024-03-22T12:50:37;17.97;;;6.60;;
20322;SDS011;10319;52.206;20.996;2024-03-22T12:53:04;16.47;;;6.03;;
20322;SDS011;10319;52.206;20.996;2024-03-22T12:55:29;16.47;;;6.20;;
20322;SDS011;10319;52.206;20.996;2024-03-22T12:57:57;16.17;;;5.70;;
20322;SDS011;10319;52.206;20.996;2024-03-22T13:00:23;17.17;;;6.43;;
20322;SDS011;10319;52.206;20.996;2024-03-22T13:02:48;15.80;;;5.40;;
20322;SDS011;10319;52.206;20.996;2024-03-22T13:05:13;17.90;;;6.13;;
20322;SDS011;10319;52.206;20.996;2024-03-22T13:07:40;16.17;;;6.00;;
20322;SDS011;10319;52.206;20.996;2024-03-22T13:10:05;18.10;;;6.87;;
20322;SDS011;10319;52.206;20.996;2024-03-22T13:12:33;19.53;;;7.57;;
20322;SDS011;10319;52.206;20.996;2024-03-22T13:15:34;18.23;;;6.80;;
20322;SDS011;10319;52.206;20.996;2024-03-22T13:18:11;18.77;;;6.90;;
20322;SDS011;10319;52.206;20.996;2024-03-22T13:20:38;17.43;;;6.83;;
20322;SDS011;10319;52.206;20.996;2024-03-22T13:23:06;17.43;;;6.67;;
20322;SDS011;10319;52.206;20.996;2024-03-22T13:25:34;17.20;;;6.57;;
20322;SDS011;10319;52.206;20.996;2024-03-22T13:27:59;17.70;;;6.03;;
20322;SDS011;10319;52.206;20.996;2024-03-22T13:30:32;16.73;;;6.37;;
20322;SDS011;10319;52.206;20.996;2024-03-22T13:32:57;16.67;;;6.57;;
20322;SDS011;10319;52.206;20.996;2024-03-22T13:35:22;17.23;;;6.70;;
20322;SDS011;10319;52.206;20.996;2024-03-22T13:37:48;19.93;;;7.13;;
20322;SDS011;10319;52.206;20.996;2024-03-22T13:40:13;16.90;;;6.63;;
20322;SDS011;10319;52.206;20.996;2024-03-22T13:42:40;19.30;;;7.73;;
20322;SDS011;10319;52.206;20.996;2024-03-22T13:45:05;18.50;;;7.50;;
20322;SDS011;10319;52.206;20.996;2024-03-22T13:47:30;17.30;;;7.03;;
20322;SDS011;10319;52.206;20.996;2024-03-22T13:49:59;19.83;;;7.93;;
20322;SDS011;10319;52.206;20.996;2024-03-22T13:52:24;18.37;;;7.27;;
20322;SDS011;10319;52.206;20.996;2024-03-22T13:54:50;17.70;;;7.00;;
20322;SDS011;10319;52.206;20.996;2024-03-22T13:57:16;20.03;;;7.70;;
20322;SDS011;10319;52.206;20.996;2024-03-22T13:59:41;20.37;;;8.03;;
20322;SDS011;10319;52.206;20.996;2024-03-22T14:02:06;19.33;;;8.03;;
20322;SDS011;10319;52.206;20.996;2024-03-22T14:04:34;18.83;;;7.30;;
20322;SDS011;10319;52.206;20.996;2024-03-22T14:07:00;20.40;;;8.13;;
20322;SDS011;10319;52.206;20.996;2024-03-22T14:09:29;19.07;;;8.30;;
20322;SDS011;10319;52.206;20.996;2024-03-22T14:11:55;17.33;;;7.33;;
20322;SDS011;10319;52.206;20.996;2024-03-22T14:14:20;18.77;;;7.60;;
20322;SDS011;10319;52.206;20.996;2024-03-22T14:16:45;18.43;;;7.37;;
20322;SDS011;10319;52.206;20.996;2024-03-22T14:19:10;19.73;;;8.07;;
20322;SDS011;10319;52.206;20.996;2024-03-22T14:21:36;17.43;;;7.33;;
20322;SDS011;10319;52.206;20.996;2024-03-22T14:24:03;16.37;;;6.40;;
20322;SDS011;10319;52.206;20.996;2024-03-22T14:26:29;18.20;;;7.40;;
20322;SDS011;10319;52.206;20.996;2024-03-22T14:28:54;18.17;;;6.93;;
20322;SDS011;10319;52.206;20.996;2024-03-22T14:31:20;17.33;;;6.50;;
20322;SDS011;10319;52.206;20.996;2024-03-22T14:33:45;17.57;;;6.70;;
20322;SDS011;10319;52.206;20.996;2024-03-22T14:36:10;16.97;;;7.00;;